createdAt,value
2017-06-18T00:01:55.581Z,17.70
2017-06-18T00:04:23.058Z,17.60
2017-06-18T00:06:50.513Z,17.60
2017-06-18T00:09:17.985Z,17.50
2017-06-18T00:11:45.437Z,17.40
2017-06-18T00:14:12.905Z,17.40
2017-06-18T00:16:40.369Z,17.40
2017-06-18T00:19:07.842Z,17.40
2017-06-18T00:21:35.302Z,17.40
2017-06-18T00:24:02.770Z,17.40
2017-06-18T00:26:30.221Z,17.40
2017-06-18T00:28:57.709Z,17.40
2017-06-18T00:31:25.169Z,17.40
2017-06-18T00:33:52.626Z,17.40
2017-06-18T00:36:20.097Z,17.40
2017-06-18T00:38:47.553Z,17.40
2017-06-18T00:41:15.025Z,17.30
2017-06-18T00:43:42.489Z,17.30
2017-06-18T00:46:09.962Z,17.20
2017-06-18T00:48:38.189Z,17.30
2017-06-18T00:51:05.657Z,17.30
2017-06-18T00:53:33.125Z,17.30
2017-06-18T00:56:00.597Z,17.30
2017-06-18T00:58:28.054Z,17.40
2017-06-18T01:00:55.531Z,17.30
2017-06-18T01:03:22.985Z,17.40
2017-06-18T01:05:51.211Z,17.20
2017-06-18T01:08:18.677Z,17.20
2017-06-18T01:10:46.133Z,17.20
2017-06-18T01:13:13.605Z,17.30
2017-06-18T01:15:41.068Z,17.30
2017-06-18T01:18:08.542Z,17.30
2017-06-18T01:20:35.997Z,17.30
2017-06-18T01:23:03.461Z,17.40
2017-06-18T01:25:30.918Z,17.40
2017-06-18T01:27:58.382Z,17.40
2017-06-18T01:30:26.605Z,17.40
2017-06-18T01:32:54.073Z,17.30
2017-06-18T01:35:21.529Z,17.40
2017-06-18T01:37:49.013Z,17.40
2017-06-18T01:40:16.465Z,17.40
2017-06-18T01:42:43.929Z,17.40
2017-06-18T01:45:11.393Z,17.50
2017-06-18T01:47:38.850Z,17.40
2017-06-18T01:50:06.327Z,17.40
2017-06-18T01:52:33.786Z,17.40
2017-06-18T01:55:01.265Z,17.30
2017-06-18T01:57:28.727Z,17.30
2017-06-18T01:59:56.199Z,17.20
2017-06-18T02:02:23.661Z,17.30
2017-06-18T02:04:51.129Z,17.30
2017-06-18T02:07:18.589Z,17.30
2017-06-18T02:09:46.106Z,17.30
2017-06-18T02:12:13.553Z,17.30
2017-06-18T02:14:41.010Z,17.30
2017-06-18T02:17:08.477Z,17.40
2017-06-18T02:19:35.934Z,17.50
2017-06-18T02:22:03.406Z,17.40
2017-06-18T02:24:30.853Z,17.40
2017-06-18T02:26:58.329Z,17.40
2017-06-18T02:29:25.785Z,17.40
2017-06-18T02:31:53.257Z,17.40
2017-06-18T02:34:20.720Z,17.40
2017-06-18T02:36:48.192Z,17.40
2017-06-18T02:39:15.650Z,17.40
2017-06-18T02:41:43.908Z,17.40
2017-06-18T02:44:11.368Z,17.40
2017-06-18T02:46:38.825Z,17.40
2017-06-18T02:49:06.294Z,17.40
2017-06-18T02:51:33.758Z,17.40
2017-06-18T02:54:01.986Z,17.40
2017-06-18T02:56:29.441Z,17.30
2017-06-18T02:58:56.913Z,17.40
2017-06-18T03:01:24.380Z,17.30
2017-06-18T03:03:51.851Z,17.30
2017-06-18T03:06:19.305Z,17.20
2017-06-18T03:08:46.779Z,17.10
2017-06-18T03:11:15.006Z,17.00
2017-06-18T03:13:42.490Z,17.00
2017-06-18T03:16:09.954Z,16.90
2017-06-18T03:18:38.182Z,16.90
2017-06-18T03:21:11.395Z,16.90
2017-06-18T03:23:44.465Z,17.00
2017-06-18T03:26:11.941Z,17.00
2017-06-18T03:28:39.397Z,16.80
2017-06-18T03:31:06.869Z,16.50
2017-06-18T03:33:34.328Z,16.50
2017-06-18T03:36:01.801Z,16.30
2017-06-18T03:38:29.264Z,16.00
2017-06-18T03:40:56.735Z,15.80
2017-06-18T03:43:24.189Z,15.80
2017-06-18T03:45:51.666Z,15.80
2017-06-18T03:48:19.122Z,16.00
2017-06-18T03:50:46.629Z,16.10
2017-06-18T03:53:14.081Z,16.20
2017-06-18T03:55:41.542Z,16.10
2017-06-18T03:58:09.009Z,16.00
2017-06-18T04:00:37.232Z,16.00
2017-06-18T04:03:04.701Z,16.00
2017-06-18T04:05:32.158Z,16.10
2017-06-18T04:07:59.629Z,16.10
2017-06-18T04:10:27.085Z,16.20
2017-06-18T04:12:54.546Z,16.20
2017-06-18T04:15:22.005Z,16.40
2017-06-18T04:17:49.477Z,16.60
2017-06-18T04:20:16.934Z,16.70
2017-06-18T04:22:44.406Z,16.70
2017-06-18T04:25:11.869Z,16.60
2017-06-18T04:27:39.345Z,16.70
2017-06-18T04:30:06.797Z,17.00
2017-06-18T04:32:34.284Z,17.00
2017-06-18T04:35:01.734Z,17.00
2017-06-18T04:37:29.194Z,16.90
2017-06-18T04:39:56.657Z,16.90
2017-06-18T04:42:24.113Z,17.00
2017-06-18T04:44:51.584Z,17.10
2017-06-18T04:47:19.041Z,17.30
2017-06-18T04:49:46.516Z,17.20
2017-06-18T04:52:13.977Z,17.10
2017-06-18T04:54:41.450Z,16.90
2017-06-18T04:57:09.674Z,16.90
2017-06-18T04:59:37.166Z,16.90
2017-06-18T05:02:04.613Z,16.90
2017-06-18T05:04:32.069Z,16.90
2017-06-18T05:06:59.541Z,17.00
2017-06-18T05:09:27.005Z,16.90
2017-06-18T05:11:55.257Z,17.10
2017-06-18T05:14:22.713Z,17.10
2017-06-18T05:16:50.189Z,17.30
2017-06-18T05:19:17.638Z,17.20
2017-06-18T05:21:45.113Z,17.30
2017-06-18T05:24:12.571Z,17.30
2017-06-18T05:26:40.043Z,17.20
2017-06-18T05:29:07.502Z,17.30
2017-06-18T05:31:34.953Z,17.60
2017-06-18T05:34:02.421Z,18.00
2017-06-18T05:36:29.881Z,18.10
2017-06-18T05:38:57.348Z,18.10
2017-06-18T05:41:24.814Z,18.10
2017-06-18T05:43:52.285Z,18.00
2017-06-18T05:46:19.745Z,18.00
2017-06-18T05:48:47.217Z,17.70
2017-06-18T05:51:14.677Z,17.60
2017-06-18T05:53:42.151Z,17.50
2017-06-18T05:56:09.614Z,17.50
2017-06-18T05:58:37.853Z,17.60
2017-06-18T06:01:05.318Z,17.60
2017-06-18T06:03:32.785Z,17.60
2017-06-18T06:06:00.250Z,17.50
2017-06-18T06:08:27.713Z,17.50
2017-06-18T06:10:55.179Z,17.50
2017-06-18T06:13:23.405Z,17.60
2017-06-18T06:15:50.866Z,17.60
2017-06-18T06:18:18.334Z,17.70
2017-06-18T06:20:45.798Z,17.80
2017-06-18T06:23:13.259Z,17.80
2017-06-18T06:25:40.725Z,18.00
2017-06-18T06:28:08.177Z,18.10
2017-06-18T06:30:35.645Z,18.30
2017-06-18T06:33:03.874Z,18.70
2017-06-18T06:35:31.346Z,18.60
2017-06-18T06:37:58.797Z,18.80
2017-06-18T06:40:26.262Z,18.70
2017-06-18T06:42:53.714Z,18.80
2017-06-18T06:45:21.189Z,18.90
2017-06-18T06:47:48.651Z,19.00
2017-06-18T06:50:16.121Z,19.10
2017-06-18T06:52:44.342Z,19.10
2017-06-18T06:55:11.822Z,19.10
2017-06-18T06:57:39.277Z,19.10
2017-06-18T07:00:06.749Z,19.10
2017-06-18T07:02:34.215Z,19.10
2017-06-18T07:05:01.686Z,19.20
2017-06-18T07:07:29.145Z,19.30
2017-06-18T07:09:57.374Z,19.40
2017-06-18T07:12:24.850Z,19.40
2017-06-18T07:14:52.305Z,19.50
2017-06-18T07:17:19.776Z,19.60
2017-06-18T07:19:47.237Z,19.80
2017-06-18T07:22:14.710Z,19.70
2017-06-18T07:24:42.157Z,19.50
2017-06-18T07:27:10.406Z,19.70
2017-06-18T07:29:37.866Z,19.70
2017-06-18T07:32:05.353Z,19.80
2017-06-18T07:34:33.573Z,20.60
2017-06-18T07:37:01.029Z,20.60
2017-06-18T07:39:28.501Z,20.70
2017-06-18T07:41:55.961Z,20.90
2017-06-18T07:44:23.435Z,20.80
2017-06-18T07:46:50.890Z,21.10
2017-06-18T07:49:18.366Z,21.10
2017-06-18T07:51:45.813Z,21.10
2017-06-18T07:54:14.062Z,20.90
2017-06-18T07:56:41.522Z,20.90
2017-06-18T07:59:08.985Z,20.80
2017-06-18T08:01:36.448Z,20.60
2017-06-18T08:04:03.922Z,20.70
2017-06-18T08:06:31.363Z,21.20
2017-06-18T08:08:58.813Z,21.50
2017-06-18T08:11:26.270Z,21.60
2017-06-18T08:13:53.718Z,21.70
2017-06-18T08:16:21.189Z,22.00
2017-06-18T08:18:48.656Z,22.40
2017-06-18T08:21:16.128Z,23.00
2017-06-18T08:23:44.345Z,23.40
2017-06-18T08:26:11.810Z,23.40
2017-06-18T08:28:39.276Z,24.00
2017-06-18T08:31:06.747Z,24.30
2017-06-18T08:33:34.194Z,24.30
2017-06-18T08:36:01.673Z,24.60
2017-06-18T08:38:29.121Z,25.00
2017-06-18T08:40:56.569Z,25.10
2017-06-18T08:43:24.037Z,24.80
2017-06-18T08:45:51.485Z,25.10
2017-06-18T08:48:18.952Z,25.80
2017-06-18T08:50:46.404Z,26.50
2017-06-18T08:53:13.861Z,26.90
2017-06-18T08:55:41.309Z,26.70
2017-06-18T08:58:08.777Z,26.70
2017-06-18T09:00:36.225Z,26.60
2017-06-18T09:03:03.693Z,26.90
2017-06-18T09:05:31.158Z,26.40
2017-06-18T09:07:58.634Z,26.10
2017-06-18T09:10:26.845Z,25.70
2017-06-18T09:12:54.334Z,25.70
2017-06-18T09:15:21.785Z,26.50
2017-06-18T09:17:49.245Z,26.60
2017-06-18T09:20:16.698Z,26.90
2017-06-18T09:22:44.145Z,27.60
2017-06-18T09:25:11.606Z,26.90
2017-06-18T09:27:39.057Z,26.60
2017-06-18T09:30:06.522Z,26.60
2017-06-18T09:32:33.984Z,26.50
2017-06-18T09:35:01.457Z,26.90
2017-06-18T09:37:28.898Z,27.60
2017-06-18T09:39:56.358Z,28.00
2017-06-18T09:42:23.806Z,28.60
2017-06-18T09:44:51.277Z,29.10
2017-06-18T09:47:18.741Z,28.90
2017-06-18T09:49:46.197Z,28.00
2017-06-18T09:52:13.661Z,27.10
2017-06-18T09:54:41.118Z,26.70
2017-06-18T09:57:08.574Z,26.10
2017-06-18T09:59:36.795Z,25.60
2017-06-18T10:02:04.263Z,25.60
2017-06-18T10:04:31.713Z,25.90
2017-06-18T10:06:59.173Z,25.70
2017-06-18T10:09:26.617Z,25.70
2017-06-18T10:11:54.093Z,25.90
2017-06-18T10:14:21.551Z,26.00
2017-06-18T10:16:49.022Z,25.90
2017-06-18T10:19:16.487Z,25.60
2017-06-18T10:21:49.691Z,25.20
2017-06-18T10:24:17.156Z,24.60
2017-06-18T10:26:44.597Z,24.00
2017-06-18T10:29:12.062Z,23.90
2017-06-18T10:31:39.505Z,24.20
2017-06-18T10:34:06.969Z,24.80
2017-06-18T10:36:34.421Z,24.30
2017-06-18T10:39:01.889Z,24.30
2017-06-18T10:41:29.329Z,24.60
2017-06-18T10:43:56.793Z,24.20
2017-06-18T10:46:24.243Z,23.80
2017-06-18T10:48:51.705Z,23.90
2017-06-18T10:51:19.153Z,24.00
2017-06-18T10:53:46.622Z,24.70
2017-06-18T10:56:14.070Z,25.20
2017-06-18T10:58:41.518Z,26.10
2017-06-18T11:01:08.987Z,26.50
2017-06-18T11:03:36.441Z,26.40
2017-06-18T11:06:03.901Z,26.60
2017-06-18T11:09:09.322Z,26.20
2017-06-18T11:11:36.785Z,26.20
2017-06-18T11:14:04.246Z,26.20
2017-06-18T11:16:31.698Z,26.50
2017-06-18T11:18:59.149Z,27.10
2017-06-18T11:21:26.611Z,27.60
2017-06-18T11:23:54.066Z,27.50
2017-06-18T11:26:21.530Z,27.50
2017-06-18T11:28:48.991Z,27.00
2017-06-18T11:31:16.464Z,26.80
2017-06-18T11:33:43.913Z,27.10
2017-06-18T11:36:11.373Z,27.60
2017-06-18T11:38:38.830Z,27.60
2017-06-18T11:41:06.291Z,27.60
2017-06-18T11:43:33.733Z,27.40
2017-06-18T11:46:01.205Z,27.70
2017-06-18T11:48:28.659Z,28.00
2017-06-18T11:50:56.103Z,28.50
2017-06-18T11:53:23.565Z,29.20
2017-06-18T11:55:51.022Z,30.20
2017-06-18T11:58:18.489Z,30.80
2017-06-18T12:00:45.937Z,29.30
2017-06-18T12:03:13.409Z,29.50
2017-06-18T12:05:40.876Z,29.70
2017-06-18T12:08:08.343Z,30.40
2017-06-18T12:10:36.562Z,31.50
2017-06-18T12:13:04.042Z,31.50
2017-06-18T12:15:31.506Z,31.70
2017-06-18T12:17:58.977Z,30.70
2017-06-18T12:20:26.437Z,29.60
2017-06-18T12:22:53.921Z,29.80
2017-06-18T12:25:21.366Z,30.40
2017-06-18T12:27:49.587Z,29.10
2017-06-18T12:30:17.055Z,29.00
2017-06-18T12:32:44.510Z,27.90
2017-06-18T12:35:11.965Z,27.60
2017-06-18T12:37:39.418Z,28.30
2017-06-18T12:40:06.881Z,29.10
2017-06-18T12:42:34.330Z,29.20
2017-06-18T12:45:01.801Z,28.50
2017-06-18T12:47:29.254Z,28.60
2017-06-18T12:49:56.717Z,28.60
2017-06-18T12:52:24.161Z,27.50
2017-06-18T12:54:51.645Z,27.00
2017-06-18T12:57:19.089Z,27.00
2017-06-18T12:59:46.545Z,27.80
2017-06-18T13:02:14.005Z,27.90
2017-06-18T13:04:41.457Z,28.20
2017-06-18T13:07:08.919Z,29.20
2017-06-18T13:09:36.368Z,29.60
2017-06-18T13:12:03.825Z,29.90
2017-06-18T13:14:31.270Z,30.40
2017-06-18T13:16:58.746Z,30.00
2017-06-18T13:19:26.213Z,29.30
2017-06-18T13:21:53.678Z,29.70
2017-06-18T13:24:21.122Z,30.50
2017-06-18T13:26:48.589Z,30.80
2017-06-18T13:29:16.040Z,30.90
2017-06-18T13:31:43.490Z,29.40
2017-06-18T13:34:10.962Z,29.90
2017-06-18T13:36:38.418Z,30.90
2017-06-18T13:39:05.895Z,31.70
2017-06-18T13:41:34.121Z,30.10
2017-06-18T13:44:01.590Z,30.10
2017-06-18T13:46:29.050Z,29.00
2017-06-18T13:48:56.509Z,28.20
2017-06-18T13:51:23.961Z,28.50
2017-06-18T13:53:51.429Z,28.70
2017-06-18T13:56:18.877Z,28.00
2017-06-18T13:58:46.341Z,28.20
2017-06-18T14:01:13.802Z,28.20
2017-06-18T14:03:41.263Z,28.30
2017-06-18T14:06:08.718Z,29.00
2017-06-18T14:08:36.181Z,29.40
2017-06-18T14:11:03.627Z,29.00
2017-06-18T14:13:31.073Z,28.00
2017-06-18T14:15:58.550Z,28.20
2017-06-18T14:18:26.001Z,28.30
2017-06-18T14:20:53.463Z,28.30
2017-06-18T14:23:20.926Z,28.50
2017-06-18T14:25:48.388Z,29.30
2017-06-18T14:28:16.613Z,28.90
2017-06-18T14:30:44.094Z,28.80
2017-06-18T14:33:31.540Z,28.40
2017-06-18T14:35:59.009Z,28.30
2017-06-18T14:38:27.230Z,30.10
2017-06-18T14:40:54.685Z,30.10
2017-06-18T14:43:22.141Z,30.30
2017-06-18T14:45:49.617Z,29.50
2017-06-18T14:48:17.074Z,29.20
2017-06-18T14:50:44.535Z,28.70
2017-06-18T14:53:12.009Z,27.80
2017-06-18T14:55:39.458Z,27.40
2017-06-18T14:58:06.917Z,27.60
2017-06-18T15:00:40.048Z,28.40
2017-06-18T15:03:07.516Z,29.30
2017-06-18T15:05:34.957Z,29.10
2017-06-18T15:08:02.417Z,29.30
2017-06-18T15:10:29.876Z,29.40
2017-06-18T15:12:57.341Z,29.10
2017-06-18T15:15:24.790Z,28.80
2017-06-18T15:17:52.263Z,28.70
2017-06-18T15:20:19.727Z,28.30
2017-06-18T15:22:47.184Z,28.70
2017-06-18T15:25:14.641Z,28.50
2017-06-18T15:27:42.098Z,28.20
2017-06-18T15:30:09.565Z,28.20
2017-06-18T15:32:37.010Z,28.40
2017-06-18T15:35:04.482Z,28.40
2017-06-18T15:37:31.930Z,27.10
2017-06-18T15:39:59.405Z,26.80
2017-06-18T15:42:26.840Z,27.70
2017-06-18T15:44:54.303Z,28.50
2017-06-18T15:47:21.758Z,29.10
2017-06-18T15:49:49.225Z,29.00
2017-06-18T15:52:16.673Z,29.20
2017-06-18T15:54:44.154Z,29.40
2017-06-18T15:57:11.611Z,29.20
2017-06-18T15:59:46.386Z,28.70
2017-06-18T16:02:13.836Z,27.60
2017-06-18T16:04:42.049Z,27.10
2017-06-18T16:07:09.511Z,27.10
2017-06-18T16:09:36.963Z,27.50
2017-06-18T16:12:04.426Z,27.60
2017-06-18T16:14:31.866Z,28.10
2017-06-18T16:16:59.329Z,28.50
2017-06-18T16:19:26.792Z,28.40
2017-06-18T16:21:54.253Z,28.90
2017-06-18T16:27:28.509Z,29.20
2017-06-18T16:29:55.974Z,28.30
2017-06-18T16:32:23.434Z,27.40
2017-06-18T16:34:50.885Z,26.70
2017-06-18T16:37:18.355Z,26.00
2017-06-18T16:39:46.588Z,26.10
2017-06-18T16:42:14.033Z,26.10
2017-06-18T16:44:41.497Z,26.70
2017-06-18T16:47:08.953Z,26.20
2017-06-18T16:49:36.414Z,26.30
2017-06-18T16:52:03.862Z,26.40
2017-06-18T16:54:31.327Z,26.20
2017-06-18T17:02:48.629Z,25.40
2017-06-18T17:05:16.866Z,25.30
2017-06-18T17:07:44.331Z,25.20
2017-06-18T17:10:35.175Z,25.10
2017-06-18T17:13:03.389Z,25.10
2017-06-18T17:15:30.849Z,25.00
2017-06-18T17:17:58.303Z,25.00
2017-06-18T17:20:25.760Z,25.00
2017-06-18T17:22:53.226Z,25.10
2017-06-18T17:25:20.705Z,25.00
2017-06-18T17:27:48.385Z,24.60
2017-06-18T17:30:15.856Z,24.50
2017-06-18T17:32:44.073Z,24.50
2017-06-18T17:35:11.538Z,24.50
2017-06-18T17:37:38.999Z,24.60
2017-06-18T17:40:06.785Z,24.70
2017-06-18T17:42:53.377Z,24.70
2017-06-18T17:45:20.844Z,24.70
2017-06-18T17:47:48.289Z,24.70
2017-06-18T17:50:15.749Z,24.80
2017-06-18T17:52:43.215Z,24.50
2017-06-18T17:55:10.661Z,24.40
2017-06-18T17:57:38.125Z,24.20
2017-06-18T18:00:05.573Z,24.00
2017-06-18T18:02:33.045Z,23.80
2017-06-18T18:08:07.381Z,24.00
2017-06-18T18:10:34.826Z,23.90
2017-06-18T18:13:02.285Z,24.00
2017-06-18T18:15:29.737Z,24.10
2017-06-18T18:17:57.197Z,24.20
2017-06-18T18:20:24.645Z,24.20
2017-06-18T18:22:52.105Z,24.20
2017-06-18T18:25:19.553Z,24.10
2017-06-18T18:27:47.025Z,24.20
2017-06-18T18:30:14.481Z,24.20
2017-06-18T18:32:41.941Z,24.20
2017-06-18T18:35:09.401Z,24.10
2017-06-18T18:37:36.873Z,24.00
2017-06-18T18:40:04.339Z,23.80
2017-06-18T18:42:31.781Z,23.80
2017-06-18T18:44:59.241Z,23.80
2017-06-18T18:47:26.693Z,23.70
2017-06-18T18:49:54.185Z,23.60
2017-06-18T18:52:21.626Z,23.40
2017-06-18T18:54:49.861Z,23.30
2017-06-18T18:57:17.309Z,23.30
2017-06-18T18:59:44.777Z,23.10
2017-06-18T19:02:12.229Z,22.90
2017-06-18T19:04:39.698Z,22.70
2017-06-18T19:07:07.173Z,22.50
2017-06-18T19:09:34.632Z,22.20
2017-06-18T19:12:02.077Z,22.00
2017-06-18T19:14:29.541Z,21.80
2017-06-18T19:16:56.990Z,21.50
2017-06-18T19:19:24.442Z,21.40
2017-06-18T19:22:05.219Z,21.20
2017-06-18T19:24:32.913Z,21.10
2017-06-18T19:27:01.142Z,20.70
2017-06-18T19:29:28.597Z,20.70
2017-06-18T19:31:56.061Z,20.50
2017-06-18T19:34:23.522Z,20.30
2017-06-18T19:36:50.983Z,20.10
2017-06-18T19:39:18.425Z,20.20
2017-06-18T19:41:45.891Z,20.10
2017-06-18T19:44:13.342Z,20.10
2017-06-18T19:46:40.806Z,20.00
2017-06-18T19:49:08.262Z,19.90
2017-06-18T19:51:35.722Z,20.00
2017-06-18T19:54:03.198Z,20.00
2017-06-18T19:56:30.711Z,20.00
2017-06-18T19:58:58.166Z,19.90
2017-06-18T20:01:25.618Z,19.60
2017-06-18T20:03:53.081Z,19.20
2017-06-18T20:06:20.532Z,18.80
2017-06-18T20:08:47.994Z,18.60
2017-06-18T20:11:15.446Z,18.50
2017-06-18T20:13:42.909Z,18.50
2017-06-18T20:16:10.374Z,18.50
2017-06-18T20:18:37.821Z,18.40
2017-06-18T20:21:05.293Z,18.30
2017-06-18T20:23:32.742Z,18.20
2017-06-18T20:26:00.202Z,18.00
2017-06-18T20:28:27.649Z,17.80
2017-06-18T20:30:55.110Z,17.70
2017-06-18T20:33:22.567Z,17.50
2017-06-18T20:35:50.026Z,17.50
2017-06-18T20:38:17.491Z,17.50
2017-06-18T20:40:44.963Z,17.50
2017-06-18T20:43:12.417Z,17.50
2017-06-18T20:45:39.873Z,17.50
2017-06-18T20:48:07.329Z,17.50
2017-06-18T20:50:34.786Z,17.50
2017-06-18T20:53:02.249Z,17.40
2017-06-18T20:55:29.705Z,17.20
2017-06-18T20:57:57.177Z,17.10
2017-06-18T21:00:24.642Z,17.10
2017-06-18T21:02:52.094Z,17.10
2017-06-18T21:05:19.542Z,17.10
2017-06-18T21:07:47.009Z,17.00
2017-06-18T21:10:14.461Z,16.90
2017-06-18T21:12:41.929Z,16.90
2017-06-18T21:15:09.385Z,16.80
2017-06-18T21:17:36.858Z,16.80
2017-06-18T21:20:05.069Z,16.70
2017-06-18T21:22:32.530Z,16.70
2017-06-18T21:24:59.995Z,16.60
2017-06-18T21:27:27.449Z,16.50
2017-06-18T21:29:54.905Z,16.50
2017-06-18T21:32:22.389Z,16.50
2017-06-18T21:34:49.851Z,16.50
2017-06-18T21:37:17.306Z,16.50
2017-06-18T21:39:44.761Z,16.50
2017-06-18T21:42:12.210Z,16.40
2017-06-18T21:44:39.681Z,16.30
2017-06-18T21:47:07.134Z,16.20
2017-06-18T21:49:34.589Z,16.00
2017-06-18T21:52:02.042Z,15.90
2017-06-18T21:54:29.486Z,15.90
2017-06-18T21:56:56.954Z,15.90
2017-06-18T21:59:24.407Z,15.90
2017-06-18T22:01:51.882Z,15.80
2017-06-18T22:04:19.324Z,15.80
2017-06-18T22:06:46.781Z,15.80
2017-06-18T22:09:14.226Z,15.70
2017-06-18T22:11:41.701Z,15.70
2017-06-18T22:14:09.153Z,15.70
2017-06-18T22:16:36.629Z,15.70
2017-06-18T22:19:04.074Z,15.60
2017-06-18T22:21:31.530Z,15.40
2017-06-18T22:23:58.981Z,15.50
2017-06-18T22:26:26.465Z,15.60
2017-06-18T22:28:53.909Z,15.70
2017-06-18T22:31:21.364Z,15.70
2017-06-18T22:33:48.825Z,15.50
2017-06-18T22:36:16.292Z,15.40
2017-06-18T22:38:44.526Z,15.20
2017-06-18T22:41:11.973Z,15.20
2017-06-18T22:43:39.445Z,15.20
2017-06-18T22:46:06.911Z,15.30
2017-06-18T22:48:34.383Z,15.40
2017-06-18T22:51:01.831Z,15.30
2017-06-18T22:53:29.286Z,15.30
2017-06-18T22:55:56.738Z,15.30
2017-06-18T22:58:24.198Z,15.30
2017-06-18T23:00:51.649Z,15.20
2017-06-18T23:03:19.137Z,15.10
2017-06-18T23:05:47.353Z,15.10
2017-06-18T23:08:14.803Z,15.10
2017-06-18T23:10:42.270Z,15.20
2017-06-18T23:13:09.737Z,15.30
2017-06-18T23:15:37.209Z,15.40
2017-06-18T23:18:04.665Z,15.30
2017-06-18T23:20:32.137Z,15.30
2017-06-18T23:22:59.590Z,15.10
2017-06-18T23:25:27.054Z,14.90
2017-06-18T23:27:54.501Z,14.90
2017-06-18T23:30:21.973Z,15.00
2017-06-18T23:32:49.422Z,14.90
2017-06-18T23:35:16.887Z,14.80
2017-06-18T23:37:44.329Z,14.70
2017-06-18T23:40:11.786Z,14.80
2017-06-18T23:42:39.253Z,14.80
2017-06-18T23:45:06.705Z,14.90
2017-06-18T23:47:34.169Z,14.90
2017-06-18T23:50:01.631Z,14.80
2017-06-18T23:52:29.102Z,14.80
2017-06-18T23:54:56.568Z,14.80
2017-06-18T23:57:24.790Z,14.80
2017-06-18T23:59:52.245Z,14.80
